sensor_id;sensor_type;location;lat;lon;timestamp;temperature;humidity
3194;DHT22;1608;50.860;13.466;2023-03-16T00:00:13;1.30;99.90
3194;DHT22;1608;50.860;13.466;2023-03-16T00:02:41;1.30;99.90
3194;DHT22;1608;50.860;13.466;2023-03-16T00:05:09;1.20;99.90
3194;DHT22;1608;50.860;13.466;2023-03-16T00:07:37;1.20;99.90
3194;DHT22;1608;50.860;13.466;2023-03-16T00:10:06;1.20;99.90
3194;DHT22;1608;50.860;13.466;2023-03-16T00:12:33;1.20;99.90
3194;DHT22;1608;50.860;13.466;2023-03-16T00:15:00;1.10;99.90
3194;DHT22;1608;50.860;13.466;2023-03-16T00:17:29;1.10;99.90
3194;DHT22;1608;50.860;13.466;2023-03-16T00:19:56;1.20;99.90
3194;DHT22;1608;50.860;13.466;2023-03-16T00:22:24;1.20;99.90
3194;DHT22;1608;50.860;13.466;2023-03-16T00:24:51;1.20;99.90
3194;DHT22;1608;50.860;13.466;2023-03-16T00:27:20;1.20;99.90
3194;DHT22;1608;50.860;13.466;2023-03-16T00:29:49;1.20;99.90
3194;DHT22;1608;50.860;13.466;2023-03-16T00:32:22;1.20;99.90
3194;DHT22;1608;50.860;13.466;2023-03-16T00:34:50;1.20;99.90
3194;DHT22;1608;50.860;13.466;2023-03-16T00:37:18;1.20;99.90
3194;DHT22;1608;50.860;13.466;2023-03-16T00:39:45;1.20;99.90
3194;DHT22;1608;50.860;13.466;2023-03-16T00:42:14;1.20;99.90
3194;DHT22;1608;50.860;13.466;2023-03-16T00:44:42;1.20;99.90
3194;DHT22;1608;50.860;13.466;2023-03-16T00:47:10;1.20;99.90
3194;DHT22;1608;50.860;13.466;2023-03-16T00:49:39;1.20;99.90
3194;DHT22;1608;50.860;13.466;2023-03-16T00:52:08;1.20;99.90
3194;DHT22;1608;50.860;13.466;2023-03-16T00:54:40;1.20;99.90
3194;DHT22;1608;50.860;13.466;2023-03-16T00:57:08;1.20;99.90
3194;DHT22;1608;50.860;13.466;2023-03-16T00:59:36;1.20;99.90
3194;DHT22;1608;50.860;13.466;2023-03-16T01:02:06;1.20;99.90
3194;DHT22;1608;50.860;13.466;2023-03-16T01:04:33;1.20;99.90
3194;DHT22;1608;50.860;13.466;2023-03-16T01:07:01;1.10;99.90
3194;DHT22;1608;50.860;13.466;2023-03-16T01:09:28;1.10;99.90
3194;DHT22;1608;50.860;13.466;2023-03-16T01:11:55;1.10;99.90
3194;DHT22;1608;50.860;13.466;2023-03-16T01:14:22;1.10;99.90
3194;DHT22;1608;50.860;13.466;2023-03-16T01:16:49;1.00;99.90
3194;DHT22;1608;50.860;13.466;2023-03-16T01:19:17;1.00;99.90
3194;DHT22;1608;50.860;13.466;2023-03-16T01:21:44;1.00;99.90
3194;DHT22;1608;50.860;13.466;2023-03-16T01:24:11;1.00;99.90
3194;DHT22;1608;50.860;13.466;2023-03-16T01:26:38;0.90;99.90
3194;DHT22;1608;50.860;13.466;2023-03-16T01:29:06;0.90;99.90
3194;DHT22;1608;50.860;13.466;2023-03-16T01:31:33;0.90;99.90
3194;DHT22;1608;50.860;13.466;2023-03-16T01:34:00;0.90;99.90
3194;DHT22;1608;50.860;13.466;2023-03-16T01:36:30;0.80;99.90
3194;DHT22;1608;50.860;13.466;2023-03-16T01:38:57;0.90;99.90
3194;DHT22;1608;50.860;13.466;2023-03-16T01:41:24;0.90;99.90
3194;DHT22;1608;50.860;13.466;2023-03-16T01:43:52;0.90;99.90
3194;DHT22;1608;50.860;13.466;2023-03-16T01:46:24;0.90;99.90
3194;DHT22;1608;50.860;13.466;2023-03-16T01:48:59;0.80;99.90
3194;DHT22;1608;50.860;13.466;2023-03-16T01:51:32;0.80;99.90
3194;DHT22;1608;50.860;13.466;2023-03-16T01:54:02;0.90;99.90
3194;DHT22;1608;50.860;13.466;2023-03-16T01:56:34;0.90;99.90
3194;DHT22;1608;50.860;13.466;2023-03-16T01:59:06;0.90;99.90
3194;DHT22;1608;50.860;13.466;2023-03-16T02:01:35;0.80;99.90
3194;DHT22;1608;50.860;13.466;2023-03-16T02:04:06;0.90;99.90
3194;DHT22;1608;50.860;13.466;2023-03-16T02:06:39;0.80;99.90
3194;DHT22;1608;50.860;13.466;2023-03-16T02:09:07;0.80;99.90
3194;DHT22;1608;50.860;13.466;2023-03-16T02:11:34;0.90;99.90
3194;DHT22;1608;50.860;13.466;2023-03-16T02:14:05;0.90;99.90
3194;DHT22;1608;50.860;13.466;2023-03-16T02:16:33;0.90;99.90
3194;DHT22;1608;50.860;13.466;2023-03-16T02:19:00;0.90;99.90
3194;DHT22;1608;50.860;13.466;2023-03-16T02:21:32;0.90;99.90
3194;DHT22;1608;50.860;13.466;2023-03-16T02:24:03;1.00;99.90
3194;DHT22;1608;50.860;13.466;2023-03-16T02:26:35;0.90;99.90
3194;DHT22;1608;50.860;13.466;2023-03-16T02:29:13;0.90;99.90
3194;DHT22;1608;50.860;13.466;2023-03-16T02:31:43;0.90;99.90
3194;DHT22;1608;50.860;13.466;2023-03-16T02:34:13;0.80;99.90
3194;DHT22;1608;50.860;13.466;2023-03-16T02:36:43;0.80;99.90
3194;DHT22;1608;50.860;13.466;2023-03-16T02:39:10;0.80;99.90
3194;DHT22;1608;50.860;13.466;2023-03-16T02:41:37;0.80;99.90
3194;DHT22;1608;50.860;13.466;2023-03-16T02:44:09;0.80;99.90
3194;DHT22;1608;50.860;13.466;2023-03-16T02:46:40;0.80;99.90
3194;DHT22;1608;50.860;13.466;2023-03-16T02:49:14;0.80;99.90
3194;DHT22;1608;50.860;13.466;2023-03-16T02:51:43;0.80;99.90
3194;DHT22;1608;50.860;13.466;2023-03-16T02:54:10;0.80;99.90
3194;DHT22;1608;50.860;13.466;2023-03-16T02:56:37;0.70;99.90
3194;DHT22;1608;50.860;13.466;2023-03-16T02:59:04;0.70;99.90
3194;DHT22;1608;50.860;13.466;2023-03-16T03:01:31;0.70;99.90
3194;DHT22;1608;50.860;13.466;2023-03-16T03:03:59;0.70;99.90
3194;DHT22;1608;50.860;13.466;2023-03-16T03:06:28;0.70;99.90
3194;DHT22;1608;50.860;13.466;2023-03-16T03:08:55;0.70;99.90
3194;DHT22;1608;50.860;13.466;2023-03-16T03:11:22;0.70;99.90
3194;DHT22;1608;50.860;13.466;2023-03-16T03:13:48;0.70;99.90
3194;DHT22;1608;50.860;13.466;2023-03-16T03:16:16;0.70;99.90
3194;DHT22;1608;50.860;13.466;2023-03-16T03:18:42;0.70;99.90
3194;DHT22;1608;50.860;13.466;2023-03-16T03:21:09;0.60;99.90
3194;DHT22;1608;50.860;13.466;2023-03-16T03:23:37;0.60;99.90
3194;DHT22;1608;50.860;13.466;2023-03-16T03:26:05;0.60;99.90
3194;DHT22;1608;50.860;13.466;2023-03-16T03:28:32;0.60;99.90
3194;DHT22;1608;50.860;13.466;2023-03-16T03:30:59;0.50;99.90
3194;DHT22;1608;50.860;13.466;2023-03-16T03:33:26;0.50;99.90
3194;DHT22;1608;50.860;13.466;2023-03-16T03:35:53;0.50;99.90
3194;DHT22;1608;50.860;13.466;2023-03-16T03:38:21;0.50;99.90
3194;DHT22;1608;50.860;13.466;2023-03-16T03:40:51;0.50;99.90
3194;DHT22;1608;50.860;13.466;2023-03-16T03:43:18;0.60;99.90
3194;DHT22;1608;50.860;13.466;2023-03-16T03:45:45;0.50;99.90
3194;DHT22;1608;50.860;13.466;2023-03-16T03:48:12;0.50;99.90
3194;DHT22;1608;50.860;13.466;2023-03-16T03:50:39;0.50;99.90
3194;DHT22;1608;50.860;13.466;2023-03-16T03:53:06;0.50;99.90
3194;DHT22;1608;50.860;13.466;2023-03-16T03:55:33;0.50;99.90
3194;DHT22;1608;50.860;13.466;2023-03-16T03:58:01;0.50;99.90
3194;DHT22;1608;50.860;13.466;2023-03-16T04:00:28;0.50;99.90
3194;DHT22;1608;50.860;13.466;2023-03-16T04:02:55;0.50;99.90
3194;DHT22;1608;50.860;13.466;2023-03-16T04:05:22;0.40;99.90
3194;DHT22;1608;50.860;13.466;2023-03-16T04:07:51;0.40;99.90
3194;DHT22;1608;50.860;13.466;2023-03-16T04:10:22;0.30;99.90
3194;DHT22;1608;50.860;13.466;2023-03-16T04:12:49;0.30;99.90
3194;DHT22;1608;50.860;13.466;2023-03-16T04:15:17;0.30;99.90
3194;DHT22;1608;50.860;13.466;2023-03-16T04:17:44;0.20;99.90
3194;DHT22;1608;50.860;13.466;2023-03-16T04:20:12;0.20;99.90
3194;DHT22;1608;50.860;13.466;2023-03-16T04:22:40;0.20;99.90
3194;DHT22;1608;50.860;13.466;2023-03-16T04:25:08;0.10;99.90
3194;DHT22;1608;50.860;13.466;2023-03-16T04:27:35;0.10;99.90
3194;DHT22;1608;50.860;13.466;2023-03-16T04:30:03;0.10;99.90
3194;DHT22;1608;50.860;13.466;2023-03-16T04:32:32;0.00;99.90
3194;DHT22;1608;50.860;13.466;2023-03-16T04:34:59;0.00;99.90
3194;DHT22;1608;50.860;13.466;2023-03-16T04:37:26;0.00;99.90
3194;DHT22;1608;50.860;13.466;2023-03-16T04:39:53;-0.10;99.90
3194;DHT22;1608;50.860;13.466;2023-03-16T04:42:20;-0.10;99.90
3194;DHT22;1608;50.860;13.466;2023-03-16T04:44:47;0.00;99.90
3194;DHT22;1608;50.860;13.466;2023-03-16T04:47:15;0.00;99.90
3194;DHT22;1608;50.860;13.466;2023-03-16T04:49:43;0.00;99.90
3194;DHT22;1608;50.860;13.466;2023-03-16T04:52:11;0.00;99.90
3194;DHT22;1608;50.860;13.466;2023-03-16T04:54:38;0.00;99.90
3194;DHT22;1608;50.860;13.466;2023-03-16T04:57:05;-0.10;99.90
3194;DHT22;1608;50.860;13.466;2023-03-16T04:59:32;-0.10;99.90
3194;DHT22;1608;50.860;13.466;2023-03-16T05:01:59;-0.10;99.90
3194;DHT22;1608;50.860;13.466;2023-03-16T05:04:26;-0.10;99.90
3194;DHT22;1608;50.860;13.466;2023-03-16T05:06:54;-0.10;99.90
3194;DHT22;1608;50.860;13.466;2023-03-16T05:09:21;-0.20;99.90
3194;DHT22;1608;50.860;13.466;2023-03-16T05:11:48;-0.10;99.90
3194;DHT22;1608;50.860;13.466;2023-03-16T05:14:15;-0.10;99.90
3194;DHT22;1608;50.860;13.466;2023-03-16T05:16:42;-0.10;99.90
3194;DHT22;1608;50.860;13.466;2023-03-16T05:19:08;-0.20;99.90
3194;DHT22;1608;50.860;13.466;2023-03-16T05:21:35;-0.10;99.90
3194;DHT22;1608;50.860;13.466;2023-03-16T05:24:05;-0.10;99.90
3194;DHT22;1608;50.860;13.466;2023-03-16T05:26:33;-0.10;99.90
3194;DHT22;1608;50.860;13.466;2023-03-16T05:29:00;-0.20;99.90
3194;DHT22;1608;50.860;13.466;2023-03-16T05:31:26;-0.10;99.90
3194;DHT22;1608;50.860;13.466;2023-03-16T05:33:57;-0.10;99.90
3194;DHT22;1608;50.860;13.466;2023-03-16T05:36:24;0.00;99.90
3194;DHT22;1608;50.860;13.466;2023-03-16T05:38:51;-0.10;99.90
3194;DHT22;1608;50.860;13.466;2023-03-16T05:41:19;0.00;99.90
3194;DHT22;1608;50.860;13.466;2023-03-16T05:43:47;0.00;99.90
3194;DHT22;1608;50.860;13.466;2023-03-16T05:46:14;0.00;99.90
3194;DHT22;1608;50.860;13.466;2023-03-16T05:48:41;0.00;99.90
3194;DHT22;1608;50.860;13.466;2023-03-16T05:51:07;0.00;99.90
3194;DHT22;1608;50.860;13.466;2023-03-16T05:53:34;0.10;99.90
3194;DHT22;1608;50.860;13.466;2023-03-16T05:56:01;0.10;99.90
3194;DHT22;1608;50.860;13.466;2023-03-16T05:58:29;0.10;99.90
3194;DHT22;1608;50.860;13.466;2023-03-16T06:00:58;0.10;99.90
3194;DHT22;1608;50.860;13.466;2023-03-16T06:03:26;0.20;99.90
3194;DHT22;1608;50.860;13.466;2023-03-16T06:05:53;0.20;99.90
3194;DHT22;1608;50.860;13.466;2023-03-16T06:08:19;0.20;99.90
3194;DHT22;1608;50.860;13.466;2023-03-16T06:10:47;0.30;99.90
3194;DHT22;1608;50.860;13.466;2023-03-16T06:13:13;0.40;99.90
3194;DHT22;1608;50.860;13.466;2023-03-16T06:15:42;0.40;99.90
3194;DHT22;1608;50.860;13.466;2023-03-16T06:18:09;0.50;99.90
3194;DHT22;1608;50.860;13.466;2023-03-16T06:20:36;0.50;99.90
3194;DHT22;1608;50.860;13.466;2023-03-16T06:23:03;0.60;99.90
3194;DHT22;1608;50.860;13.466;2023-03-16T06:25:30;0.70;99.90
3194;DHT22;1608;50.860;13.466;2023-03-16T06:27:56;0.70;99.90
3194;DHT22;1608;50.860;13.466;2023-03-16T06:30:23;0.80;99.90
3194;DHT22;1608;50.860;13.466;2023-03-16T06:32:51;0.90;99.90
3194;DHT22;1608;50.860;13.466;2023-03-16T06:35:18;0.90;99.90
3194;DHT22;1608;50.860;13.466;2023-03-16T06:37:45;1.00;99.90
3194;DHT22;1608;50.860;13.466;2023-03-16T06:40:12;1.10;99.90
3194;DHT22;1608;50.860;13.466;2023-03-16T06:42:39;1.10;99.90
3194;DHT22;1608;50.860;13.466;2023-03-16T06:45:07;1.20;99.90
3194;DHT22;1608;50.860;13.466;2023-03-16T06:47:34;1.40;99.90
3194;DHT22;1608;50.860;13.466;2023-03-16T06:50:02;1.40;99.90
3194;DHT22;1608;50.860;13.466;2023-03-16T06:52:29;1.50;99.90
3194;DHT22;1608;50.860;13.466;2023-03-16T06:54:57;1.60;99.90
3194;DHT22;1608;50.860;13.466;2023-03-16T06:57:24;1.80;99.90
3194;DHT22;1608;50.860;13.466;2023-03-16T06:59:50;2.00;99.90
3194;DHT22;1608;50.860;13.466;2023-03-16T07:02:17;2.10;99.90
3194;DHT22;1608;50.860;13.466;2023-03-16T07:04:44;2.20;99.90
3194;DHT22;1608;50.860;13.466;2023-03-16T07:07:13;2.50;99.90
3194;DHT22;1608;50.860;13.466;2023-03-16T07:09:39;3.10;99.90
3194;DHT22;1608;50.860;13.466;2023-03-16T07:12:07;3.90;99.90
3194;DHT22;1608;50.860;13.466;2023-03-16T07:14:33;4.80;99.90
3194;DHT22;1608;50.860;13.466;2023-03-16T07:17:00;5.90;99.90
3194;DHT22;1608;50.860;13.466;2023-03-16T07:19:27;7.30;99.90
3194;DHT22;1608;50.860;13.466;2023-03-16T07:21:54;8.60;99.90
3194;DHT22;1608;50.860;13.466;2023-03-16T07:24:22;9.70;99.90
3194;DHT22;1608;50.860;13.466;2023-03-16T07:26:49;10.50;99.90
3194;DHT22;1608;50.860;13.466;2023-03-16T07:29:17;11.20;98.10
3194;DHT22;1608;50.860;13.466;2023-03-16T07:31:44;11.50;97.90
3194;DHT22;1608;50.860;13.466;2023-03-16T07:34:11;11.60;96.30
3194;DHT22;1608;50.860;13.466;2023-03-16T07:36:38;11.80;96.30
3194;DHT22;1608;50.860;13.466;2023-03-16T07:39:05;12.10;94.70
3194;DHT22;1608;50.860;13.466;2023-03-16T07:41:33;12.20;90.40
3194;DHT22;1608;50.860;13.466;2023-03-16T07:44:00;12.30;90.00
3194;DHT22;1608;50.860;13.466;2023-03-16T07:46:26;12.30;87.00
3194;DHT22;1608;50.860;13.466;2023-03-16T07:48:53;12.60;86.30
3194;DHT22;1608;50.860;13.466;2023-03-16T07:51:20;13.10;85.80
3194;DHT22;1608;50.860;13.466;2023-03-16T07:53:47;13.80;81.20
3194;DHT22;1608;50.860;13.466;2023-03-16T07:56:14;14.30;76.80
3194;DHT22;1608;50.860;13.466;2023-03-16T07:58:42;14.70;73.80
3194;DHT22;1608;50.860;13.466;2023-03-16T08:01:09;15.00;71.10
3194;DHT22;1608;50.860;13.466;2023-03-16T08:03:36;15.30;68.20
3194;DHT22;1608;50.860;13.466;2023-03-16T08:06:04;15.70;67.30
3194;DHT22;1608;50.860;13.466;2023-03-16T08:08:31;15.80;64.10
3194;DHT22;1608;50.860;13.466;2023-03-16T08:10:58;15.90;61.30
3194;DHT22;1608;50.860;13.466;2023-03-16T08:13:25;15.90;61.30
3194;DHT22;1608;50.860;13.466;2023-03-16T08:15:54;15.80;60.40
3194;DHT22;1608;50.860;13.466;2023-03-16T08:18:24;15.70;59.50
3194;DHT22;1608;50.860;13.466;2023-03-16T08:20:51;15.90;58.90
3194;DHT22;1608;50.860;13.466;2023-03-16T08:23:18;16.00;58.10
3194;DHT22;1608;50.860;13.466;2023-03-16T08:25:45;16.20;58.70
3194;DHT22;1608;50.860;13.466;2023-03-16T08:28:13;16.60;58.00
3194;DHT22;1608;50.860;13.466;2023-03-16T08:30:44;16.60;55.10
3194;DHT22;1608;50.860;13.466;2023-03-16T08:33:12;16.30;56.30
3194;DHT22;1608;50.860;13.466;2023-03-16T08:35:41;16.20;55.40
3194;DHT22;1608;50.860;13.466;2023-03-16T08:38:09;16.40;55.10
3194;DHT22;1608;50.860;13.466;2023-03-16T08:40:37;16.10;55.00
3194;DHT22;1608;50.860;13.466;2023-03-16T08:43:06;16.20;55.70
3194;DHT22;1608;50.860;13.466;2023-03-16T08:45:33;16.10;55.20
3194;DHT22;1608;50.860;13.466;2023-03-16T08:48:00;16.10;55.00
3194;DHT22;1608;50.860;13.466;2023-03-16T08:50:28;15.90;55.00
3194;DHT22;1608;50.860;13.466;2023-03-16T08:52:55;15.50;55.80
3194;DHT22;1608;50.860;13.466;2023-03-16T08:55:21;14.80;55.50
3194;DHT22;1608;50.860;13.466;2023-03-16T08:57:49;14.20;56.50
3194;DHT22;1608;50.860;13.466;2023-03-16T09:00:16;13.30;57.00
3194;DHT22;1608;50.860;13.466;2023-03-16T09:02:45;12.60;58.80
3194;DHT22;1608;50.860;13.466;2023-03-16T09:05:13;12.10;59.50
3194;DHT22;1608;50.860;13.466;2023-03-16T09:07:41;11.80;60.80
3194;DHT22;1608;50.860;13.466;2023-03-16T09:10:09;11.60;61.80
3194;DHT22;1608;50.860;13.466;2023-03-16T09:12:39;11.60;61.40
3194;DHT22;1608;50.860;13.466;2023-03-16T09:15:08;11.40;63.40
3194;DHT22;1608;50.860;13.466;2023-03-16T09:17:36;11.20;62.90
3194;DHT22;1608;50.860;13.466;2023-03-16T09:20:04;11.20;64.00
3194;DHT22;1608;50.860;13.466;2023-03-16T09:22:33;11.30;65.40
3194;DHT22;1608;50.860;13.466;2023-03-16T09:25:02;11.50;65.20
3194;DHT22;1608;50.860;13.466;2023-03-16T09:27:30;11.30;63.80
3194;DHT22;1608;50.860;13.466;2023-03-16T09:29:57;11.30;64.90
3194;DHT22;1608;50.860;13.466;2023-03-16T09:32:25;11.20;64.90
3194;DHT22;1608;50.860;13.466;2023-03-16T09:34:52;11.00;66.50
3194;DHT22;1608;50.860;13.466;2023-03-16T09:37:19;10.50;66.70
3194;DHT22;1608;50.860;13.466;2023-03-16T09:39:46;10.10;66.40
3194;DHT22;1608;50.860;13.466;2023-03-16T09:42:17;9.70;67.70
3194;DHT22;1608;50.860;13.466;2023-03-16T09:44:54;9.20;68.60
3194;DHT22;1608;50.860;13.466;2023-03-16T09:47:26;8.70;69.80
3194;DHT22;1608;50.860;13.466;2023-03-16T09:49:55;8.40;71.10
3194;DHT22;1608;50.860;13.466;2023-03-16T09:52:30;8.20;72.30
3194;DHT22;1608;50.860;13.466;2023-03-16T09:55:20;8.10;72.80
3194;DHT22;1608;50.860;13.466;2023-03-16T10:01:19;8.00;72.30
3194;DHT22;1608;50.860;13.466;2023-03-16T10:07:29;7.80;74.30
3194;DHT22;1608;50.860;13.466;2023-03-16T10:10:06;7.70;75.40
3194;DHT22;1608;50.860;13.466;2023-03-16T10:12:46;7.70;76.20
3194;DHT22;1608;50.860;13.466;2023-03-16T10:15:19;7.60;74.90
3194;DHT22;1608;50.860;13.466;2023-03-16T10:17:52;7.60;74.70
3194;DHT22;1608;50.860;13.466;2023-03-16T10:20:21;7.50;75.10
3194;DHT22;1608;50.860;13.466;2023-03-16T10:22:50;7.50;76.40
3194;DHT22;1608;50.860;13.466;2023-03-16T10:25:21;7.50;75.00
3194;DHT22;1608;50.860;13.466;2023-03-16T10:27:49;7.50;74.60
3194;DHT22;1608;50.860;13.466;2023-03-16T10:30:21;7.50;74.70
3194;DHT22;1608;50.860;13.466;2023-03-16T10:32:49;7.50;74.40
3194;DHT22;1608;50.860;13.466;2023-03-16T10:35:26;7.60;73.90
3194;DHT22;1608;50.860;13.466;2023-03-16T10:37:54;7.50;73.60
3194;DHT22;1608;50.860;13.466;2023-03-16T10:40:23;7.40;75.00
3194;DHT22;1608;50.860;13.466;2023-03-16T10:42:50;7.40;76.40
3194;DHT22;1608;50.860;13.466;2023-03-16T10:45:28;7.40;75.30
3194;DHT22;1608;50.860;13.466;2023-03-16T10:48:05;7.50;74.70
3194;DHT22;1608;50.860;13.466;2023-03-16T10:50:32;7.60;72.70
3194;DHT22;1608;50.860;13.466;2023-03-16T10:53:00;7.50;74.40
3194;DHT22;1608;50.860;13.466;2023-03-16T10:55:29;7.50;75.50
3194;DHT22;1608;50.860;13.466;2023-03-16T10:57:59;7.40;76.70
3194;DHT22;1608;50.860;13.466;2023-03-16T11:00:29;7.50;76.30
3194;DHT22;1608;50.860;13.466;2023-03-16T11:03:11;7.50;76.60
3194;DHT22;1608;50.860;13.466;2023-03-16T11:05:39;7.50;74.20
3194;DHT22;1608;50.860;13.466;2023-03-16T11:08:10;7.50;76.00
3194;DHT22;1608;50.860;13.466;2023-03-16T11:10:40;7.60;76.40
3194;DHT22;1608;50.860;13.466;2023-03-16T11:13:12;7.70;76.20
3194;DHT22;1608;50.860;13.466;2023-03-16T11:15:46;7.80;75.70
3194;DHT22;1608;50.860;13.466;2023-03-16T11:18:27;7.70;76.50
3194;DHT22;1608;50.860;13.466;2023-03-16T11:20:55;7.70;75.50
3194;DHT22;1608;50.860;13.466;2023-03-16T11:23:29;7.70;74.40
3194;DHT22;1608;50.860;13.466;2023-03-16T11:25:58;7.70;75.10
3194;DHT22;1608;50.860;13.466;2023-03-16T11:28:33;7.80;72.70
3194;DHT22;1608;50.860;13.466;2023-03-16T11:31:08;7.70;71.70
3194;DHT22;1608;50.860;13.466;2023-03-16T11:33:39;7.60;74.50
3194;DHT22;1608;50.860;13.466;2023-03-16T11:36:16;7.50;76.30
3194;DHT22;1608;50.860;13.466;2023-03-16T11:38:50;7.70;75.00
3194;DHT22;1608;50.860;13.466;2023-03-16T11:41:26;7.60;75.40
3194;DHT22;1608;50.860;13.466;2023-03-16T11:43:55;7.70;75.30
3194;DHT22;1608;50.860;13.466;2023-03-16T11:46:26;7.80;76.30
3194;DHT22;1608;50.860;13.466;2023-03-16T11:49:05;7.80;76.50
3194;DHT22;1608;50.860;13.466;2023-03-16T11:51:41;8.00;75.60
3194;DHT22;1608;50.860;13.466;2023-03-16T11:54:27;8.00;76.30
3194;DHT22;1608;50.860;13.466;2023-03-16T11:56:58;8.10;70.40
3194;DHT22;1608;50.860;13.466;2023-03-16T11:59:52;7.90;70.20
3194;DHT22;1608;50.860;13.466;2023-03-16T12:02:34;7.90;71.50
3194;DHT22;1608;50.860;13.466;2023-03-16T12:05:21;7.90;73.90
3194;DHT22;1608;50.860;13.466;2023-03-16T12:07:55;7.80;74.20
3194;DHT22;1608;50.860;13.466;2023-03-16T12:10:25;7.80;71.70
3194;DHT22;1608;50.860;13.466;2023-03-16T12:13:22;7.70;74.20
3194;DHT22;1608;50.860;13.466;2023-03-16T12:15:57;7.80;74.20
3194;DHT22;1608;50.860;13.466;2023-03-16T12:18:35;7.80;72.10
3194;DHT22;1608;50.860;13.466;2023-03-16T12:21:09;7.80;73.40
3194;DHT22;1608;50.860;13.466;2023-03-16T12:23:41;7.80;74.70
3194;DHT22;1608;50.860;13.466;2023-03-16T12:26:09;7.80;74.40
3194;DHT22;1608;50.860;13.466;2023-03-16T12:28:37;7.90;75.50
3194;DHT22;1608;50.860;13.466;2023-03-16T12:31:09;8.00;76.10
3194;DHT22;1608;50.860;13.466;2023-03-16T12:33:52;8.10;76.20
3194;DHT22;1608;50.860;13.466;2023-03-16T12:36:41;8.10;75.20
3194;DHT22;1608;50.860;13.466;2023-03-16T12:39:13;8.10;76.50
3194;DHT22;1608;50.860;13.466;2023-03-16T12:41:55;8.10;76.10
3194;DHT22;1608;50.860;13.466;2023-03-16T12:44:29;8.10;75.60
3194;DHT22;1608;50.860;13.466;2023-03-16T12:47:01;8.20;75.30
3194;DHT22;1608;50.860;13.466;2023-03-16T12:49:32;8.20;75.00
3194;DHT22;1608;50.860;13.466;2023-03-16T12:52:02;8.20;75.40
3194;DHT22;1608;50.860;13.466;2023-03-16T12:54:29;8.30;73.80
3194;DHT22;1608;50.860;13.466;2023-03-16T12:57:00;8.20;74.60
3194;DHT22;1608;50.860;13.466;2023-03-16T12:59:36;8.20;74.50
3194;DHT22;1608;50.860;13.466;2023-03-16T13:02:11;8.20;74.20
3194;DHT22;1608;50.860;13.466;2023-03-16T13:04:41;8.30;73.90
3194;DHT22;1608;50.860;13.466;2023-03-16T13:07:15;8.30;74.40
3194;DHT22;1608;50.860;13.466;2023-03-16T13:09:46;8.30;73.10
3194;DHT22;1608;50.860;13.466;2023-03-16T13:12:26;8.30;74.30
3194;DHT22;1608;50.860;13.466;2023-03-16T13:14:53;8.30;71.70
3194;DHT22;1608;50.860;13.466;2023-03-16T13:17:31;8.30;70.90
3194;DHT22;1608;50.860;13.466;2023-03-16T13:20:06;8.30;71.30
3194;DHT22;1608;50.860;13.466;2023-03-16T13:23:05;8.40;71.40
3194;DHT22;1608;50.860;13.466;2023-03-16T13:25:39;8.40;70.60
3194;DHT22;1608;50.860;13.466;2023-03-16T13:28:11;8.40;71.90
3194;DHT22;1608;50.860;13.466;2023-03-16T13:30:45;8.50;70.10
3194;DHT22;1608;50.860;13.466;2023-03-16T13:33:18;8.40;69.50
3194;DHT22;1608;50.860;13.466;2023-03-16T13:35:49;8.30;71.20
3194;DHT22;1608;50.860;13.466;2023-03-16T13:38:18;8.30;71.70
3194;DHT22;1608;50.860;13.466;2023-03-16T13:40:49;8.30;72.30
3194;DHT22;1608;50.860;13.466;2023-03-16T13:43:17;8.30;73.00
3194;DHT22;1608;50.860;13.466;2023-03-16T13:45:45;8.30;72.70
3194;DHT22;1608;50.860;13.466;2023-03-16T13:48:13;8.50;72.60
3194;DHT22;1608;50.860;13.466;2023-03-16T13:50:41;8.50;71.60
3194;DHT22;1608;50.860;13.466;2023-03-16T13:53:15;8.50;73.10
3194;DHT22;1608;50.860;13.466;2023-03-16T13:55:45;8.50;72.20
3194;DHT22;1608;50.860;13.466;2023-03-16T13:58:19;8.50;72.10
3194;DHT22;1608;50.860;13.466;2023-03-16T14:00:47;8.50;72.70
3194;DHT22;1608;50.860;13.466;2023-03-16T14:03:16;8.50;73.60
3194;DHT22;1608;50.860;13.466;2023-03-16T14:05:45;8.50;73.90
3194;DHT22;1608;50.860;13.466;2023-03-16T14:08:17;8.50;74.10
3194;DHT22;1608;50.860;13.466;2023-03-16T14:10:45;8.60;74.30
3194;DHT22;1608;50.860;13.466;2023-03-16T14:13:25;8.60;76.20
3194;DHT22;1608;50.860;13.466;2023-03-16T14:15:59;8.50;75.50
3194;DHT22;1608;50.860;13.466;2023-03-16T14:18:31;8.50;75.00
3194;DHT22;1608;50.860;13.466;2023-03-16T14:21:05;8.50;75.20
3194;DHT22;1608;50.860;13.466;2023-03-16T14:23:35;8.50;75.30
3194;DHT22;1608;50.860;13.466;2023-03-16T14:26:05;8.50;74.20
3194;DHT22;1608;50.860;13.466;2023-03-16T14:28:37;8.60;72.90
3194;DHT22;1608;50.860;13.466;2023-03-16T14:31:07;8.50;73.40
3194;DHT22;1608;50.860;13.466;2023-03-16T14:33:36;8.50;74.10
3194;DHT22;1608;50.860;13.466;2023-03-16T14:36:13;8.60;73.40
3194;DHT22;1608;50.860;13.466;2023-03-16T14:38:43;8.50;72.20
3194;DHT22;1608;50.860;13.466;2023-03-16T14:41:19;8.40;73.50
3194;DHT22;1608;50.860;13.466;2023-03-16T14:43:48;8.30;74.00
3194;DHT22;1608;50.860;13.466;2023-03-16T14:46:22;8.40;73.80
3194;DHT22;1608;50.860;13.466;2023-03-16T14:48:51;8.40;74.30
3194;DHT22;1608;50.860;13.466;2023-03-16T14:51:17;8.40;75.60
3194;DHT22;1608;50.860;13.466;2023-03-16T14:53:47;8.40;75.60
3194;DHT22;1608;50.860;13.466;2023-03-16T14:56:13;8.50;72.70
3194;DHT22;1608;50.860;13.466;2023-03-16T14:58:41;8.40;73.20
3194;DHT22;1608;50.860;13.466;2023-03-16T15:01:13;8.40;72.30
3194;DHT22;1608;50.860;13.466;2023-03-16T15:03:42;8.40;71.90
3194;DHT22;1608;50.860;13.466;2023-03-16T15:06:11;8.30;71.70
3194;DHT22;1608;50.860;13.466;2023-03-16T15:08:44;8.40;71.50
3194;DHT22;1608;50.860;13.466;2023-03-16T15:11:13;8.40;72.60
3194;DHT22;1608;50.860;13.466;2023-03-16T15:13:45;8.40;72.40
3194;DHT22;1608;50.860;13.466;2023-03-16T15:16:28;8.40;72.10
3194;DHT22;1608;50.860;13.466;2023-03-16T15:18:55;8.40;72.20
3194;DHT22;1608;50.860;13.466;2023-03-16T15:21:22;8.40;71.50
3194;DHT22;1608;50.860;13.466;2023-03-16T15:23:54;8.40;71.20
3194;DHT22;1608;50.860;13.466;2023-03-16T15:26:26;8.40;72.40
3194;DHT22;1608;50.860;13.466;2023-03-16T15:28:53;8.30;73.40
3194;DHT22;1608;50.860;13.466;2023-03-16T15:31:21;8.20;75.40
3194;DHT22;1608;50.860;13.466;2023-03-16T15:33:48;8.20;76.30
3194;DHT22;1608;50.860;13.466;2023-03-16T15:36:16;8.30;76.30
3194;DHT22;1608;50.860;13.466;2023-03-16T15:38:45;8.30;77.60
3194;DHT22;1608;50.860;13.466;2023-03-16T15:41:12;8.30;77.20
3194;DHT22;1608;50.860;13.466;2023-03-16T15:43:41;8.30;76.60
3194;DHT22;1608;50.860;13.466;2023-03-16T15:46:09;8.20;77.50
3194;DHT22;1608;50.860;13.466;2023-03-16T15:48:37;8.10;77.10
3194;DHT22;1608;50.860;13.466;2023-03-16T15:51:06;8.10;77.30
3194;DHT22;1608;50.860;13.466;2023-03-16T15:53:37;8.10;77.20
3194;DHT22;1608;50.860;13.466;2023-03-16T15:56:06;8.10;77.60
3194;DHT22;1608;50.860;13.466;2023-03-16T15:58:34;8.10;77.70
3194;DHT22;1608;50.860;13.466;2023-03-16T16:01:04;8.00;79.10
3194;DHT22;1608;50.860;13.466;2023-03-16T16:03:33;7.90;79.40
3194;DHT22;1608;50.860;13.466;2023-03-16T16:06:00;7.90;79.90
3194;DHT22;1608;50.860;13.466;2023-03-16T16:08:27;7.90;79.60
3194;DHT22;1608;50.860;13.466;2023-03-16T16:10:54;7.90;80.00
3194;DHT22;1608;50.860;13.466;2023-03-16T16:13:25;7.80;79.80
3194;DHT22;1608;50.860;13.466;2023-03-16T16:15:53;7.80;79.40
3194;DHT22;1608;50.860;13.466;2023-03-16T16:18:27;7.80;79.10
3194;DHT22;1608;50.860;13.466;2023-03-16T16:20:55;7.70;78.80